Time;durP1;ratioP1;P1;durP2;ratioP2;P2;SDS_P1;SDS_P2;PMS_P1;PMS_P2;Temp;Humidity;BMP_temperature;BMP_pressure;BME280_temperature;BME280_humidity;BME280_pressure;Samples;Min_cycle;Max_cycle;Signal;HPM_P1;HPM_P2
2022/05/10 00:01:33;;;;;;;;;0.33;0.33;;;;;21.23;46.22;102023.91;5050620;28;9217;-70
2022/05/10 00:04:00;;;;;;;;;1.75;1.75;;;;;21.24;46.43;102023.03;5051428;28;8778;-70
2022/05/10 00:06:29;;;;;;;;;1.00;1.00;;;;;21.23;46.13;102024.81;5051135;28;9410;-70
2022/05/10 00:08:55;;;;;;;;;0.67;0.67;;;;;21.22;46.30;102017.72;5051378;28;9341;-71
2022/05/10 00:11:20;;;;;;;;;0.75;0.75;;;;;21.22;46.34;102027.50;5051239;28;9268;-70
2022/05/10 00:13:46;;;;;;;;;2.00;1.00;;;;;21.18;47.17;102016.00;5050496;28;8806;-71
2022/05/10 00:16:15;;;;;;;;;1.00;1.00;;;;;21.16;46.76;102007.13;5051386;28;8789;-70
2022/05/10 00:18:41;;;;;;;;;3.00;2.00;;;;;21.17;46.67;102003.59;5050888;28;8834;-70
2022/05/10 00:21:09;;;;;;;;;1.33;0.67;;;;;21.18;46.50;102005.38;5049483;28;9244;-71
2022/05/10 00:23:34;;;;;;;;;0.00;0.00;;;;;21.17;46.53;102000.94;5051041;28;9128;-70
2022/05/10 00:25:59;;;;;;;;;1.00;1.00;;;;;21.16;46.57;102001.81;5050966;28;9175;-70
2022/05/10 00:28:25;;;;;;;;;1.33;1.33;;;;;21.15;46.38;101997.38;5050602;28;9034;-70
2022/05/10 00:30:50;;;;;;;;;0.00;0.00;;;;;21.16;46.73;101999.16;5050683;28;8813;-70
2022/05/10 00:33:19;;;;;;;;;1.33;1.33;;;;;21.15;46.61;101997.38;5051026;28;8802;-70
2022/05/10 00:35:45;;;;;;;;;1.00;1.00;;;;;21.13;46.69;101991.22;5049804;28;8782;-70
2022/05/10 00:38:11;;;;;;;;;1.00;1.00;;;;;21.12;46.54;101987.66;5050872;28;9413;-70
2022/05/10 00:40:36;;;;;;;;;1.00;1.00;;;;;21.14;46.58;101985.03;5051196;28;8878;-71
2022/05/10 00:43:11;;;;;;;;;2.00;2.00;;;;;21.13;46.64;101983.25;5049796;28;10109;-71
2022/05/10 00:45:45;;;;;;;;;1.00;1.00;;;;;21.11;46.65;101983.25;5051071;28;8814;-70
2022/05/10 00:48:16;;;;;;;;;1.00;1.00;;;;;21.11;46.60;101982.34;5050690;28;9194;-70
2022/05/10 00:50:46;;;;;;;;;0.67;0.33;;;;;21.11;46.67;101985.91;5049790;28;10103;-70
2022/05/10 00:53:38;;;;;;;;;1.00;1.00;;;;;21.11;46.60;101983.25;5050716;28;10016;-70
2022/05/10 00:56:11;;;;;;;;;1.67;1.67;;;;;21.10;46.42;101975.25;5049906;28;9245;-70
2022/05/10 00:58:37;;;;;;;;;0.33;0.33;;;;;21.10;46.71;101969.94;5050688;28;9107;-70
2022/05/10 01:01:04;;;;;;;;;2.00;2.00;;;;;21.09;46.53;101970.84;5050018;28;9322;-70
2022/05/10 01:03:37;;;;;;;;;1.67;1.67;;;;;21.09;46.75;101962.88;5049882;28;8785;-70
2022/05/10 01:06:20;;;;;;;;;2.00;2.00;;;;;21.08;46.60;101961.97;5050298;28;9980;-70
2022/05/10 01:08:58;;;;;;;;;1.00;1.00;;;;;21.07;46.62;101949.56;5050136;28;9325;-70
2022/05/10 01:11:34;;;;;;;;;2.00;1.00;;;;;21.07;46.70;101954.88;5049642;28;9322;-71
2022/05/10 01:14:22;;;;;;;;;1.33;1.00;;;;;21.06;46.84;101947.84;5050037;28;9220;-71
2022/05/10 01:16:48;;;;;;;;;0.33;0.33;;;;;21.04;46.82;101936.31;5049074;28;9380;-70
2022/05/10 01:19:14;;;;;;;;;1.00;1.00;;;;;21.06;46.71;101941.63;5050118;28;9361;-70
2022/05/10 01:22:09;;;;;;;;;1.00;1.00;;;;;21.07;46.83;101943.41;5049916;28;9568;-70
2022/05/10 01:24:56;;;;;;;;;1.00;1.00;;;;;21.06;46.79;101936.31;5050178;28;9232;-69
2022/05/10 01:27:46;;;;;;;;;1.00;1.00;;;;;21.04;46.85;101931.00;5050536;28;9255;-70
2022/05/10 01:30:22;;;;;;;;;4.00;2.67;;;;;21.04;46.67;101930.13;5049976;28;10035;-70
2022/05/10 01:35:49;;;;;;;;;1.00;1.00;;;;;21.02;46.59;101919.53;5049890;28;9270;-70
2022/05/10 01:38:32;;;;;;;;;2.00;1.00;;;;;21.02;46.76;101919.53;5049899;28;9220;-69
2022/05/10 01:41:12;;;;;;;;;1.33;1.33;;;;;21.01;46.76;101912.44;5050317;28;9267;-70
2022/05/10 01:43:56;;;;;;;;;1.25;1.25;;;;;21.02;46.86;101908.03;5049902;28;9208;-70
2022/05/10 01:46:27;;;;;;;;;1.00;1.00;;;;;21.03;46.83;101909.78;5049153;28;9401;-70
2022/05/10 01:49:03;;;;;;;;;3.00;2.00;;;;;21.02;46.93;101900.06;5049535;28;9262;-70
2022/05/10 01:51:41;;;;;;;;;0.67;0.67;;;;;21.02;46.70;101902.72;5049974;28;9413;-70
2022/05/10 01:54:40;;;;;;;;;1.00;1.00;;;;;21.01;46.78;101892.97;5048846;28;9430;-70
2022/05/10 01:57:11;;;;;;;;;3.25;2.50;;;;;21.01;47.02;101892.97;5018120;28;9263;-70
2022/05/10 01:59:39;;;;;;;;;2.00;1.00;;;;;21.00;46.90;101885.88;5048997;28;9335;-70
2022/05/10 02:02:07;;;;;;;;;0.00;0.00;;;;;20.99;46.93;101887.69;5049559;28;9360;-70
2022/05/10 02:04:38;;;;;;;;;2.00;2.00;;;;;20.99;46.96;101895.66;5049892;28;9343;-70
2022/05/10 02:07:17;;;;;;;;;1.00;1.00;;;;;20.99;46.74;101884.13;5048954;28;9269;-70
2022/05/10 02:09:59;;;;;;;;;1.67;1.67;;;;;20.98;46.94;101883.25;5049437;28;9269;-70
2022/05/10 02:12:29;;;;;;;;;1.00;1.00;;;;;20.99;46.78;101886.78;5049469;28;9353;-69
2022/05/10 02:15:20;;;;;;;;;1.00;1.00;;;;;20.98;46.88;101874.41;5048579;28;9569;-70
2022/05/10 02:18:02;;;;;;;;;1.00;1.00;;;;;20.97;46.88;101878.81;5049058;28;9400;-70
2022/05/10 02:20:33;;;;;;;;;1.00;1.00;;;;;20.98;46.78;101871.75;5048573;28;9414;-69
2022/05/10 02:23:10;;;;;;;;;1.33;1.00;;;;;20.98;46.93;101869.97;5049055;28;9327;-70
2022/05/10 02:25:42;;;;;;;;;2.33;2.33;;;;;20.98;46.95;101869.09;5049407;28;9267;-70
2022/05/10 02:28:25;;;;;;;;;1.00;1.00;;;;;20.94;46.92;101857.59;5048167;28;9344;-70
2022/05/10 02:30:54;;;;;;;;;1.67;1.00;;;;;20.96;47.01;101863.78;5049193;28;9260;-70
2022/05/10 02:33:20;;;;;;;;;1.00;1.00;;;;;20.97;47.01;101860.25;5049565;28;9248;-70
2022/05/10 02:35:55;;;;;;;;;1.00;1.00;;;;;20.97;47.02;101856.69;5048423;28;9390;-70
2022/05/10 02:38:24;;;;;;;;;1.00;1.00;;;;;20.96;46.94;101855.81;5049235;28;9254;-70
2022/05/10 02:40:52;;;;;;;;;1.00;1.00;;;;;20.95;46.81;101856.72;5048946;28;9410;-70
2022/05/10 02:43:27;;;;;;;;;1.00;1.00;;;;;20.96;46.96;101847.84;5048615;28;9530;-70
2022/05/10 02:45:54;;;;;;;;;1.25;1.25;;;;;20.96;46.95;101852.25;5052658;28;10152;-70
2022/05/10 02:48:27;;;;;;;;;0.75;0.75;;;;;20.96;46.99;101854.91;5052307;28;9325;-69
2022/05/10 02:50:56;;;;;;;;;1.00;1.00;;;;;20.95;46.95;101850.53;5052697;28;9350;-70
2022/05/10 02:53:22;;;;;;;;;2.00;1.00;;;;;20.95;46.90;101840.78;5053184;28;9576;-70
2022/05/10 02:55:57;;;;;;;;;1.25;1.25;;;;;20.96;46.93;101836.34;5052146;28;9319;-70
2022/05/10 02:58:48;;;;;;;;;1.00;1.00;;;;;20.95;46.88;101835.47;5053111;28;8784;-70
2022/05/10 03:01:24;;;;;;;;;2.00;2.00;;;;;20.95;47.25;101832.84;5052572;28;10147;-70
2022/05/10 03:03:49;;;;;;;;;1.00;1.00;;;;;20.95;47.04;101839.91;5051897;28;10095;-70
2022/05/10 03:06:21;;;;;;;;;1.75;1.75;;;;;20.95;46.71;101830.19;5053104;28;9315;-69
2022/05/10 03:08:47;;;;;;;;;1.00;1.00;;;;;20.94;46.88;101828.41;5052679;28;8778;-69
2022/05/10 03:11:12;;;;;;;;;2.00;2.00;;;;;20.94;47.08;101824.84;5052319;28;9615;-69
2022/05/10 03:13:38;;;;;;;;;1.75;1.75;;;;;20.92;46.92;101816.88;5052584;28;8790;-69
2022/05/10 03:16:03;;;;;;;;;1.00;1.00;;;;;20.94;47.01;101819.56;5052260;28;8822;-70
2022/05/10 03:18:29;;;;;;;;;1.00;1.00;;;;;20.93;47.05;101812.47;5051751;28;8809;-69
2022/05/10 03:20:54;;;;;;;;;1.00;1.00;;;;;20.93;46.97;101813.34;5052635;28;8824;-70
2022/05/10 03:23:19;;;;;;;;;1.00;1.00;;;;;20.92;47.05;101811.59;5051470;28;8806;-69
2022/05/10 03:25:45;;;;;;;;;2.00;2.00;;;;;20.92;47.07;101808.94;5052213;28;8832;-69
2022/05/10 03:28:10;;;;;;;;;1.00;1.00;;;;;20.91;47.19;101809.84;5052341;28;8801;-70
2022/05/10 03:30:36;;;;;;;;;1.67;1.67;;;;;20.92;47.20;101811.59;5051425;28;8825;-69
2022/05/10 03:33:01;;;;;;;;;2.00;1.25;;;;;20.91;47.22;101807.19;5051961;28;8788;-69
2022/05/10 03:35:27;;;;;;;;;2.00;2.00;;;;;20.91;47.17;101807.19;5052392;28;8940;-70
2022/05/10 03:37:52;;;;;;;;;2.00;2.00;;;;;20.90;47.35;101802.75;5051333;28;8856;-70
2022/05/10 03:40:17;;;;;;;;;2.50;2.50;;;;;20.91;47.15;101806.31;5052416;28;8805;-72
2022/05/10 03:42:47;;;;;;;;;2.00;1.00;;;;;20.91;47.28;101804.53;5052094;28;8853;-71
2022/05/10 03:45:13;;;;;;;;;1.50;1.50;;;;;20.92;46.96;101797.44;5051381;28;8798;-71
2022/05/10 03:47:39;;;;;;;;;1.00;1.00;;;;;20.91;47.08;101791.25;5051739;28;9400;-71
2022/05/10 03:50:07;;;;;;;;;1.00;1.00;;;;;20.90;47.06;101797.44;5051983;28;9499;-71
2022/05/10 03:52:32;;;;;;;;;0.00;0.00;;;;;20.91;47.19;101790.38;5051640;28;8809;-72
2022/05/10 03:54:57;;;;;;;;;1.33;1.00;;;;;20.90;47.33;101792.13;5051734;28;9583;-69
2022/05/10 03:57:23;;;;;;;;;1.25;1.25;;;;;20.90;47.23;101792.13;5050941;28;8790;-71
2022/05/10 03:59:48;;;;;;;;;2.00;1.00;;;;;20.91;47.13;101785.06;5051012;28;8789;-70
2022/05/10 04:02:18;;;;;;;;;2.75;1.75;;;;;20.88;47.19;101783.31;5051227;28;9038;-70
2022/05/10 04:04:43;;;;;;;;;1.75;1.75;;;;;20.89;47.29;101785.06;5051441;28;9559;-71
2022/05/10 04:07:09;;;;;;;;;1.75;1.75;;;;;20.90;47.18;101777.97;5051542;28;9502;-71
2022/05/10 04:09:34;;;;;;;;;1.50;1.00;;;;;20.90;47.30;101780.63;5052852;28;8875;-71
2022/05/10 04:12:00;;;;;;;;;1.00;1.00;;;;;20.91;47.37;101779.75;5051038;28;8798;-71
2022/05/10 04:14:25;;;;;;;;;2.00;1.00;;;;;20.89;47.26;101777.09;5051266;28;8875;-70
2022/05/10 04:16:51;;;;;;;;;1.00;1.00;;;;;20.87;47.21;101770.03;5050825;28;8824;-70
2022/05/10 04:19:16;;;;;;;;;1.25;1.00;;;;;20.90;47.22;101776.22;5051259;28;8922;-70
2022/05/10 04:21:41;;;;;;;;;1.00;1.00;;;;;20.89;47.06;101774.44;5050937;28;8845;-69
2022/05/10 04:24:07;;;;;;;;;1.00;1.00;;;;;20.90;47.20;101772.66;5051768;28;8803;-70
2022/05/10 04:26:32;;;;;;;;;1.75;1.75;;;;;20.89;47.07;101768.25;5050660;28;8794;-70
2022/05/10 04:28:58;;;;;;;;;2.00;2.00;;;;;20.89;47.10;101760.28;5050784;28;11426;-70
2022/05/10 04:31:24;;;;;;;;;1.50;1.50;;;;;20.89;47.32;101765.59;5050861;28;8832;-70
2022/05/10 04:33:49;;;;;;;;;2.00;2.00;;;;;20.87;47.45;101762.97;5049927;28;9471;-71
2022/05/10 04:36:14;;;;;;;;;1.75;1.75;;;;;20.89;47.32;101768.25;5050989;28;8976;-71
2022/05/10 04:38:40;;;;;;;;;2.00;2.00;;;;;20.89;47.47;101768.25;5050875;28;8941;-69
2022/05/10 04:43:49;;;;;;;;;2.00;2.00;;;;;20.89;47.58;101761.16;5050379;28;8801;-69
2022/05/10 04:46:15;;;;;;;;;1.50;1.50;;;;;20.89;47.20;101757.63;5050931;28;9504;-69
2022/05/10 04:48:43;;;;;;;;;1.00;1.00;;;;;20.90;47.38;101759.41;5050170;28;8786;-68
2022/05/10 04:51:09;;;;;;;;;2.00;2.00;;;;;20.88;47.34;101751.47;5050808;28;11360;-68
2022/05/10 04:53:37;;;;;;;;;2.00;2.00;;;;;20.90;47.33;101751.44;5050668;28;9487;-70
2022/05/10 04:56:03;;;;;;;;;2.00;2.00;;;;;20.89;47.05;101750.53;5049750;28;9251;-69
2022/05/10 04:58:29;;;;;;;;;1.00;1.00;;;;;20.90;47.12;101749.66;5050746;28;9416;-70
2022/05/10 05:00:59;;;;;;;;;2.00;2.00;;;;;20.93;47.08;101754.94;5050189;28;8793;-69
2022/05/10 05:03:24;;;;;;;;;2.00;2.00;;;;;20.94;47.12;101756.72;5049740;28;9557;-69
2022/05/10 05:05:49;;;;;;;;;1.00;1.00;;;;;20.96;46.85;101751.38;5050463;28;9263;-69
2022/05/10 05:08:15;;;;;;;;;1.00;1.00;;;;;20.98;46.98;101746.97;5049801;28;8796;-70
2022/05/10 05:10:40;;;;;;;;;1.00;1.00;;;;;20.99;46.99;101746.97;5050111;28;8793;-70
2022/05/10 05:13:05;;;;;;;;;2.00;2.00;;;;;21.01;46.98;101746.94;5050771;28;8797;-70
2022/05/10 05:15:31;;;;;;;;;2.50;2.50;;;;;21.04;46.95;101745.13;5051261;28;8801;-70
2022/05/10 05:17:56;;;;;;;;;2.75;2.00;;;;;21.03;46.89;101751.31;5050354;28;8809;-70
2022/05/10 05:20:21;;;;;;;;;1.00;1.00;;;;;21.05;47.00;101752.22;5051472;28;9486;-70
2022/05/10 05:22:46;;;;;;;;;2.33;2.33;;;;;21.05;46.70;101756.63;5050507;28;8814;-70
2022/05/10 05:25:12;;;;;;;;;1.67;1.67;;;;;21.07;46.86;101757.53;5050642;28;8785;-70
2022/05/10 05:27:37;;;;;;;;;1.75;1.75;;;;;21.07;46.55;101761.03;5051299;28;8790;-70
2022/05/10 05:30:03;;;;;;;;;1.75;1.75;;;;;21.09;46.33;101761.94;5050330;28;8826;-70
2022/05/10 05:32:31;;;;;;;;;1.67;1.67;;;;;21.09;46.79;101756.63;5050476;28;8801;-70
2022/05/10 05:34:57;;;;;;;;;3.00;3.00;;;;;21.10;46.73;101754.84;5050847;28;8762;-70
2022/05/10 05:37:34;;;;;;;;;2.00;2.00;;;;;21.12;46.44;101750.44;5049430;28;9392;-71
2022/05/10 05:40:01;;;;;;;;;2.00;2.00;;;;;21.11;46.58;101752.19;5049819;28;8789;-70
2022/05/10 05:42:27;;;;;;;;;3.00;2.00;;;;;21.12;46.72;101753.06;5049916;28;9512;-70
2022/05/10 05:44:52;;;;;;;;;1.00;1.00;;;;;21.13;46.57;101754.84;5049055;28;9351;-70
2022/05/10 05:47:17;;;;;;;;;1.50;1.50;;;;;21.12;46.37;101751.31;5050007;28;8785;-71
2022/05/10 05:49:43;;;;;;;;;3.75;3.00;;;;;21.13;46.47;101752.19;5049794;28;8832;-71
2022/05/10 05:52:08;;;;;;;;;1.25;1.25;;;;;21.13;46.46;101744.22;5049182;28;8810;-71
2022/05/10 05:54:34;;;;;;;;;1.75;1.25;;;;;21.14;46.59;101746.88;5049642;28;8880;-71
2022/05/10 05:57:03;;;;;;;;;1.00;1.00;;;;;21.14;46.56;101741.56;5049349;28;8786;-71
2022/05/10 05:59:29;;;;;;;;;1.00;1.00;;;;;21.14;46.36;101738.91;5048920;28;8790;-70
2022/05/10 06:01:55;;;;;;;;;3.00;2.00;;;;;21.15;46.56;101735.34;5049228;28;9397;-71
2022/05/10 06:04:20;;;;;;;;;1.75;1.75;;;;;21.16;46.40;101736.22;5049865;28;9488;-71
2022/05/10 06:06:46;;;;;;;;;2.00;2.00;;;;;21.15;46.41;101730.03;5048500;28;8801;-71
2022/05/10 06:09:11;;;;;;;;;1.75;1.75;;;;;21.16;46.50;101723.84;5049328;28;8786;-71
2022/05/10 06:11:39;;;;;;;;;1.25;1.25;;;;;21.18;48.02;101719.38;5049292;28;8810;-72
2022/05/10 06:14:05;;;;;;;;;2.00;2.00;;;;;21.25;46.58;101716.69;5048381;28;8806;-71
2022/05/10 06:16:30;;;;;;;;;2.00;2.00;;;;;21.36;48.24;101717.47;5049615;28;9500;-72
2022/05/10 06:18:56;;;;;;;;;4.75;3.50;;;;;21.49;49.24;101712.03;5048660;28;8805;-72
2022/05/10 06:21:21;;;;;;;;;3.00;3.00;;;;;21.59;50.76;101712.84;5048541;28;8797;-72
2022/05/10 06:23:46;;;;;;;;;4.00;3.00;;;;;21.69;52.89;101717.16;5049092;28;8896;-70
2022/05/10 06:26:12;;;;;;;;;4.25;4.00;;;;;21.74;54.71;101723.31;5048899;28;8812;-71
2022/05/10 06:28:37;;;;;;;;;4.50;4.00;;;;;21.73;55.08;101723.31;5049304;28;8774;-70
2022/05/10 06:31:06;;;;;;;;;3.75;3.75;;;;;21.71;56.40;101722.47;5049138;28;8790;-70
2022/05/10 06:33:31;;;;;;;;;6.00;5.00;;;;;21.52;61.17;101716.47;5048821;28;8900;-72
2022/05/10 06:35:56;;;;;;;;;4.00;4.00;;;;;21.59;59.95;101707.53;5049023;28;10291;-71
2022/05/10 06:38:27;;;;;;;;;11.00;8.00;;;;;21.56;59.77;101711.06;5048620;28;8805;-79
2022/05/10 06:41:00;;;;;;;;;4.50;4.50;;;;;21.53;58.83;101700.47;5044507;28;8821;-74
2022/05/10 06:43:25;;;;;;;;;9.75;9.00;;;;;21.51;57.42;101699.63;5048872;28;9680;-72
2022/05/10 06:45:50;;;;;;;;;8.50;7.50;;;;;21.52;56.97;101687.22;5048506;28;9631;-74
2022/05/10 06:48:16;;;;;;;;;3.25;3.25;;;;;21.50;56.87;101681.91;5048498;28;8794;-73
2022/05/10 06:50:43;;;;;;;;;5.00;5.00;;;;;21.52;56.48;101696.06;5049472;28;8880;-73
2022/05/10 06:53:09;;;;;;;;;5.75;5.75;;;;;21.52;56.06;101681.91;5052570;28;8778;-72
2022/05/10 06:55:38;;;;;;;;;7.50;7.00;;;;;21.50;55.29;101681.03;5050533;28;9723;-73
2022/05/10 06:58:04;;;;;;;;;6.25;5.25;;;;;21.50;55.56;101679.25;5049678;28;10019;-74
2022/05/10 07:00:32;;;;;;;;;6.75;5.00;;;;;21.50;55.68;101681.03;5049939;28;9622;-74
2022/05/10 07:02:57;;;;;;;;;8.00;8.00;;;;;21.49;54.11;101674.84;5050499;28;9836;-74
2022/05/10 07:05:23;;;;;;;;;9.00;8.00;;;;;21.51;54.38;101677.50;5050157;28;9828;-73
2022/05/10 07:07:48;;;;;;;;;10.50;8.00;;;;;21.52;53.89;101673.94;5053331;28;9532;-73
2022/05/10 07:10:17;;;;;;;;;7.25;5.75;;;;;21.53;53.56;101673.03;5049900;28;8809;-74
2022/05/10 07:12:44;;;;;;;;;9.00;6.75;;;;;21.53;53.28;101676.56;5049607;28;8860;-73
2022/05/10 07:15:16;;;;;;;;;8.50;7.00;;;;;21.54;52.67;101669.47;5030386;28;9755;-66
2022/05/10 07:17:41;;;;;;;;;9.00;9.00;;;;;21.55;52.20;101664.16;5043840;28;9721;-67
2022/05/10 07:20:10;;;;;;;;;7.00;6.00;;;;;21.59;52.73;101659.69;5048557;28;9501;-69
2022/05/10 07:22:35;;;;;;;;;6.50;5.75;;;;;21.61;52.64;101661.44;5048363;28;8828;-70
2022/05/10 07:25:01;;;;;;;;;7.75;6.50;;;;;21.59;52.11;101657.91;5048994;28;9619;-71
2022/05/10 07:27:26;;;;;;;;;9.00;7.25;;;;;21.61;51.84;101656.09;5048806;28;8776;-71
2022/05/10 07:29:51;;;;;;;;;7.00;7.00;;;;;21.61;51.58;101655.22;5048646;28;8785;-70
2022/05/10 07:32:19;;;;;;;;;5.25;5.25;;;;;21.63;51.60;101669.41;5051996;28;8781;-70
2022/05/10 07:34:45;;;;;;;;;5.50;5.50;;;;;21.65;51.49;101668.47;5052597;28;8792;-71
2022/05/10 07:37:10;;;;;;;;;6.50;6.50;;;;;21.68;50.93;101664.88;5052487;28;9621;-71
2022/05/10 07:39:36;;;;;;;;;6.25;6.25;;;;;21.69;50.77;101654.25;5052987;28;12332;-71
2022/05/10 07:42:04;;;;;;;;;7.75;6.75;;;;;21.72;50.43;101669.28;5052668;28;8931;-70
2022/05/10 07:44:30;;;;;;;;;7.00;7.00;;;;;21.74;50.37;101659.53;5052079;28;8798;-70
2022/05/10 07:46:55;;;;;;;;;5.25;5.25;;;;;21.71;50.38;101653.38;5052854;28;9734;-69
2022/05/10 07:49:21;;;;;;;;;5.00;5.00;;;;;21.72;50.12;101644.47;5052751;28;9802;-69
2022/05/10 07:51:46;;;;;;;;;7.00;7.00;;;;;21.72;50.02;101644.47;5052019;28;9554;-69
2022/05/10 07:54:11;;;;;;;;;8.00;7.00;;;;;21.73;49.86;101647.13;5052796;28;8822;-70
2022/05/10 07:56:38;;;;;;;;;8.25;8.25;;;;;21.68;50.15;101636.53;5052911;28;9562;-68
2022/05/10 07:59:03;;;;;;;;;7.75;7.25;;;;;21.66;49.78;101632.16;5051644;28;8805;-69
2022/05/10 08:01:29;;;;;;;;;6.00;6.00;;;;;21.71;49.94;101643.59;5052609;28;9648;-70
2022/05/10 08:03:54;;;;;;;;;5.25;5.25;;;;;21.72;49.57;101631.19;5051992;28;8786;-69
2022/05/10 08:06:20;;;;;;;;;8.00;7.00;;;;;21.68;49.59;101638.31;5052133;28;9533;-70
2022/05/10 08:08:49;;;;;;;;;6.25;6.25;;;;;21.67;49.72;101644.50;5052504;28;8847;-70
2022/05/10 08:11:14;;;;;;;;;8.00;7.50;;;;;21.68;49.54;101641.84;5052972;28;8810;-70
2022/05/10 08:13:41;;;;;;;;;5.75;5.75;;;;;21.69;49.41;101645.41;5048204;28;10480;-70
2022/05/10 08:16:09;;;;;;;;;8.00;7.75;;;;;21.66;49.37;101645.44;5052848;28;8847;-70
2022/05/10 08:18:37;;;;;;;;;8.25;6.25;;;;;21.66;49.37;101646.31;5052452;28;9741;-70
2022/05/10 08:21:06;;;;;;;;;7.25;7.25;;;;;21.71;49.12;101640.94;5052233;28;9634;-70
2022/05/10 08:23:33;;;;;;;;;7.00;6.00;;;;;21.68;49.39;101639.19;5048529;28;9748;-70
2022/05/10 08:26:00;;;;;;;;;7.75;7.75;;;;;21.67;49.13;101634.75;5037542;28;10229;-70
2022/05/10 08:28:29;;;;;;;;;6.25;5.00;;;;;21.68;49.12;101636.53;5032714;28;9716;-69
2022/05/10 08:30:55;;;;;;;;;8.25;8.25;;;;;21.70;49.14;101633.88;5050986;28;9754;-69
2022/05/10 08:33:30;;;;;;;;;8.50;8.50;;;;;21.71;49.04;101621.47;5036483;28;9719;-70
2022/05/10 08:35:56;;;;;;;;;6.00;5.25;;;;;21.71;49.02;101624.13;5032047;28;11507;-69
2022/05/10 08:38:23;;;;;;;;;8.00;8.00;;;;;21.70;49.04;101623.25;5032433;28;9557;-69
2022/05/10 08:41:06;;;;;;;;;9.75;8.25;;;;;21.73;48.45;101636.50;5048295;28;9580;-69
2022/05/10 08:43:39;;;;;;;;;4.00;4.00;;;;;21.75;48.77;101637.34;5051337;28;10442;-71
2022/05/10 08:46:08;;;;;;;;;6.50;6.50;;;;;21.76;48.56;101639.09;5051582;28;9578;-69
2022/05/10 08:48:33;;;;;;;;;7.00;7.00;;;;;21.74;48.65;101632.06;5050619;28;9766;-69
2022/05/10 08:50:59;;;;;;;;;8.50;8.50;;;;;21.73;48.64;101630.28;5042040;28;9834;-69
2022/05/10 08:53:25;;;;;;;;;7.50;7.50;;;;;21.77;48.53;101645.31;5031163;28;8788;-68
2022/05/10 08:55:59;;;;;;;;;7.50;7.50;;;;;21.76;48.49;101639.09;5029772;28;9866;-68
2022/05/10 08:58:43;;;;;;;;;7.75;7.75;;;;;21.79;48.44;101636.41;5031311;28;8816;-69
2022/05/10 09:01:14;;;;;;;;;8.50;8.00;;;;;21.81;48.29;101642.59;5049731;28;9881;-68
2022/05/10 09:03:42;;;;;;;;;7.75;7.75;;;;;21.82;48.21;101643.50;5050568;28;9931;-69
2022/05/10 09:06:23;;;;;;;;;5.25;5.25;;;;;21.84;48.19;101639.00;5050482;28;9892;-70
2022/05/10 09:09:25;;;;;;;;;8.75;7.00;;;;;21.83;48.19;101650.53;5049906;28;9981;-70
2022/05/10 09:12:03;;;;;;;;;8.25;7.25;;;;;21.86;48.16;101655.84;5050833;28;9739;-69
2022/05/10 09:14:33;;;;;;;;;6.00;6.00;;;;;21.89;47.84;101642.50;5050998;28;9647;-69
2022/05/10 09:17:01;;;;;;;;;5.00;5.00;;;;;21.86;47.88;101645.22;5050010;28;9718;-70
2022/05/10 09:19:36;;;;;;;;;7.25;7.25;;;;;21.85;48.32;101651.41;5050808;28;9969;-70
2022/05/10 09:22:10;;;;;;;;;6.00;5.75;;;;;21.84;48.33;101655.84;5049494;28;9916;-69
2022/05/10 09:24:53;;;;;;;;;5.50;5.50;;;;;21.84;48.47;101653.19;5050860;28;10596;-69
2022/05/10 09:27:32;;;;;;;;;10.00;9.00;;;;;21.84;48.11;101647.88;5049840;28;9737;-69
2022/05/10 09:29:58;;;;;;;;;8.50;7.75;;;;;21.84;48.53;101650.53;5049797;28;9723;-70
2022/05/10 09:35:28;;;;;;;;;8.00;7.75;;;;;21.87;48.26;101654.94;5031039;28;8777;-69
2022/05/10 09:38:03;;;;;;;;;5.75;5.50;;;;;21.87;48.65;101650.50;5034513;28;9763;-69
2022/05/10 09:40:36;;;;;;;;;7.00;7.00;;;;;21.86;48.51;101642.56;5051796;28;9733;-69
2022/05/10 09:43:29;;;;;;;;;6.00;6.00;;;;;21.88;48.61;101648.72;5049000;28;9771;-69
2022/05/10 09:46:19;;;;;;;;;8.00;8.00;;;;;21.88;48.43;101648.72;5047094;28;9907;-69
2022/05/10 09:48:46;;;;;;;;;6.25;5.50;;;;;21.88;48.62;101648.72;5050189;28;9856;-69
2022/05/10 09:51:21;;;;;;;;;6.25;6.25;;;;;21.88;48.67;101649.59;5049762;28;9700;-69
2022/05/10 09:53:47;;;;;;;;;5.75;4.75;;;;;21.89;48.66;101638.06;5049248;28;10647;-69
2022/05/10 09:56:35;;;;;;;;;7.75;6.75;;;;;21.91;48.77;101638.06;5050422;28;10011;-69
2022/05/10 09:59:04;;;;;;;;;8.75;7.00;;;;;21.91;48.61;101654.03;5049214;28;8798;-69
2022/05/10 10:01:45;;;;;;;;;6.00;6.00;;;;;21.93;48.55;101654.91;5050381;28;9944;-69
2022/05/10 10:04:21;;;;;;;;;11.50;9.00;;;;;21.94;48.70;101659.31;5048111;28;9861;-69
2022/05/10 10:07:07;;;;;;;;;4.25;4.25;;;;;21.92;48.54;101643.38;5049844;28;10012;-69
2022/05/10 10:09:44;;;;;;;;;5.50;5.25;;;;;21.91;48.53;101649.59;5035678;28;9878;-69
2022/05/10 10:12:31;;;;;;;;;8.00;6.75;;;;;21.93;48.73;101663.72;5049726;28;9959;-70
2022/05/10 10:14:57;;;;;;;;;8.00;8.00;;;;;21.93;48.60;101665.53;5048164;28;9709;-70
2022/05/10 10:17:28;;;;;;;;;7.25;5.25;;;;;21.93;48.33;101666.41;5049925;28;9803;-70
2022/05/10 10:20:27;;;;;;;;;7.00;7.00;;;;;21.95;48.58;101669.94;5009467;28;9745;-69
2022/05/10 10:22:55;;;;;;;;;7.00;7.00;;;;;21.95;48.64;101671.72;5008250;28;9749;-70
2022/05/10 10:25:31;;;;;;;;;6.00;6.00;;;;;21.94;48.54;101665.50;5009887;28;9713;-69
2022/05/10 10:28:02;;;;;;;;;6.00;6.00;;;;;21.94;48.55;101667.28;4998914;28;9795;-69
2022/05/10 10:30:35;;;;;;;;;7.00;6.50;;;;;21.93;48.41;101658.41;5010626;28;9637;-69
2022/05/10 10:33:17;;;;;;;;;5.50;5.00;;;;;21.96;48.76;101663.72;5007841;28;9692;-69
2022/05/10 10:35:50;;;;;;;;;7.00;6.25;;;;;21.98;48.56;101659.25;5010583;28;9629;-70
2022/05/10 10:38:21;;;;;;;;;6.00;6.00;;;;;22.00;48.62;101664.56;5010422;28;9782;-69
2022/05/10 10:40:55;;;;;;;;;8.50;7.50;;;;;22.03;48.22;101660.09;5009297;28;9661;-70
2022/05/10 10:43:36;;;;;;;;;6.75;6.75;;;;;22.06;48.09;101664.47;5008498;28;9877;-69
2022/05/10 10:46:16;;;;;;;;;6.25;6.25;;;;;22.07;48.33;101666.25;5009945;28;9843;-70
2022/05/10 10:48:48;;;;;;;;;7.00;6.00;;;;;22.09;48.02;101670.63;5009413;28;9927;-70
2022/05/10 10:51:15;;;;;;;;;7.00;7.00;;;;;22.11;48.28;101660.00;5010612;28;9813;-69
2022/05/10 10:53:43;;;;;;;;;6.50;6.50;;;;;22.12;48.41;101653.75;5008261;28;10043;-71
2022/05/10 10:56:27;;;;;;;;;8.75;7.00;;;;;22.12;48.14;101659.94;5010361;28;9787;-69
2022/05/10 10:59:03;;;;;;;;;6.75;5.75;;;;;22.14;48.36;101655.50;5008936;28;10108;-69
2022/05/10 11:01:59;;;;;;;;;8.00;5.75;;;;;22.15;47.94;101651.97;5008517;28;9662;-70
2022/05/10 11:04:52;;;;;;;;;10.00;7.00;;;;;22.16;48.25;101656.34;5008040;28;9936;-70
2022/05/10 11:07:23;;;;;;;;;5.25;5.00;;;;;22.17;47.71;101649.25;5011989;28;10447;-70
2022/05/10 11:10:09;;;;;;;;;7.75;7.25;;;;;22.19;47.93;101650.13;5011705;28;9604;-70
2022/05/10 11:13:01;;;;;;;;;7.00;6.75;;;;;22.20;47.65;101645.66;5012055;28;9866;-70
2022/05/10 11:15:41;;;;;;;;;6.00;6.00;;;;;22.21;47.87;101647.44;4991596;28;9657;-69
2022/05/10 11:18:21;;;;;;;;;7.75;7.00;;;;;22.21;47.95;101661.63;5003426;28;9748;-69
2022/05/10 11:21:16;;;;;;;;;4.50;4.50;;;;;22.24;47.87;101661.56;5032254;28;9701;-68
2022/05/10 11:24:07;;;;;;;;;5.75;5.25;;;;;22.25;47.87;101658.03;5031700;28;9642;-68
2022/05/10 11:26:35;;;;;;;;;5.00;5.00;;;;;22.24;47.65;101644.72;4995134;28;9901;-69
2022/05/10 11:29:44;;;;;;;;;5.75;5.75;;;;;22.23;47.62;101643.88;5037871;28;9685;-70
2022/05/10 11:32:31;;;;;;;;;6.00;6.00;;;;;22.22;47.73;101642.09;5053030;28;10525;-69
2022/05/10 11:35:16;;;;;;;;;5.75;5.75;;;;;22.23;47.83;101650.97;5053169;28;9629;-69
2022/05/10 11:38:13;;;;;;;;;6.00;4.25;;;;;22.23;47.86;101643.00;5052455;28;9633;-69
2022/05/10 11:40:55;;;;;;;;;5.75;5.75;;;;;22.23;47.68;101643.88;5023773;28;9649;-69
2022/05/10 11:43:43;;;;;;;;;7.00;5.75;;;;;22.24;47.91;101634.97;5052170;28;9862;-69
2022/05/10 11:46:37;;;;;;;;;6.00;4.00;;;;;22.25;47.90;101649.16;5046162;28;9635;-70
2022/05/10 11:49:40;;;;;;;;;6.00;6.00;;;;;22.26;47.81;101632.31;5052444;28;10328;-69
2022/05/10 11:52:41;;;;;;;;;8.00;8.00;;;;;22.27;47.64;101626.09;5032724;28;9703;-68
2022/05/10 11:55:32;;;;;;;;;4.00;4.00;;;;;22.27;47.80;101636.72;4992229;28;9739;-69
2022/05/10 11:58:03;;;;;;;;;7.00;6.00;;;;;22.27;47.69;101632.25;5031906;28;9577;-69
2022/05/10 12:00:31;;;;;;;;;7.00;6.00;;;;;22.27;47.73;101634.06;5047842;28;9511;-69